Time;durP1;ratioP1;P1;durP2;ratioP2;P2;SDS_P1;SDS_P2;PMS_P1;PMS_P2;Temp;Humidity;BMP_temperature;BMP_pressure;BME280_temperature;BME280_humidity;BME280_pressure;Samples;Min_cycle;Max_cycle;Signal;HPM_P1;HPM_P2
2023/07/05 00:02:10;;;;;;;9.23;3.90;;;19.10;65.90;;;;;;4904892;29;20091;-91
2023/07/05 00:04:38;;;;;;;10.00;3.70;;;19.10;66.10;;;;;;4904485;29;20048;-91
2023/07/05 00:07:05;;;;;;;11.27;4.18;;;19.10;66.50;;;;;;4904583;29;20142;-91
2023/07/05 00:09:32;;;;;;;9.55;3.55;;;19.00;66.70;;;;;;4904676;29;20096;-91
2023/07/05 00:11:59;;;;;;;9.82;4.40;;;18.90;66.80;;;;;;4889389;29;20047;-91
2023/07/05 00:14:27;;;;;;;13.23;4.32;;;18.80;66.90;;;;;;4904629;29;20055;-91
2023/07/05 00:16:55;;;;;;;9.77;4.20;;;18.80;67.30;;;;;;4904363;29;20052;-91
2023/07/05 00:19:22;;;;;;;11.45;5.20;;;18.70;67.70;;;;;;4904678;29;20147;-91
2023/07/05 00:21:49;;;;;;;14.52;4.78;;;18.70;67.70;;;;;;4904378;29;20052;-91
2023/07/05 00:24:16;;;;;;;10.50;4.20;;;18.70;67.40;;;;;;4904446;29;20063;-91
2023/07/05 00:26:44;;;;;;;9.07;3.75;;;18.70;67.60;;;;;;4904567;29;20044;-92
2023/07/05 00:29:11;;;;;;;10.27;4.47;;;18.60;67.80;;;;;;4888806;29;20054;-91
2023/07/05 00:31:38;;;;;;;13.05;4.30;;;18.60;67.80;;;;;;4888939;29;20051;-91
2023/07/05 00:34:05;;;;;;;9.88;4.30;;;18.60;67.60;;;;;;4888741;29;20040;-91
2023/07/05 00:36:32;;;;;;;10.63;3.88;;;18.70;67.60;;;;;;4904156;29;20072;-91
2023/07/05 00:38:59;;;;;;;11.77;4.38;;;18.60;67.60;;;;;;4888315;29;20043;-91
2023/07/05 00:41:26;;;;;;;9.73;3.80;;;18.60;67.70;;;;;;4904203;29;20079;-91
2023/07/05 00:43:53;;;;;;;9.70;4.10;;;18.60;67.70;;;;;;4888665;29;20405;-92
2023/07/05 00:46:29;;;;;;;9.38;4.40;;;18.60;67.80;;;;;;4903768;29;20044;-91
2023/07/05 00:49:04;;;;;;;10.60;3.67;;;18.50;68.00;;;;;;4904453;29;20078;-90
2023/07/05 00:51:45;;;;;;;11.95;4.85;;;18.50;67.80;;;;;;4904017;29;20047;-91
2023/07/05 00:54:16;;;;;;;11.00;4.00;;;18.50;67.80;;;;;;4888748;29;20525;-91
2023/07/05 00:56:59;;;;;;;9.30;4.22;;;18.50;68.10;;;;;;4888361;29;20075;-91
2023/07/05 00:59:30;;;;;;;9.70;3.72;;;18.50;67.90;;;;;;4888371;29;20503;-91
2023/07/05 01:01:58;;;;;;;8.80;3.75;;;18.50;67.60;;;;;;4903655;29;20084;-92
2023/07/05 01:04:32;;;;;;;9.07;4.00;;;18.50;67.80;;;;;;4888952;29;20099;-91
2023/07/05 01:07:00;;;;;;;10.03;3.73;;;18.50;67.60;;;;;;4888197;29;20052;-91
2023/07/05 01:09:29;;;;;;;9.68;3.65;;;18.50;67.70;;;;;;4903529;29;20052;-91
2023/07/05 01:12:12;;;;;;;9.38;3.90;;;18.40;67.80;;;;;;4888320;29;20044;-91
2023/07/05 01:15:05;;;;;;;8.93;3.60;;;18.40;67.80;;;;;;4903629;29;20477;-91
2023/07/05 01:17:51;;;;;;;8.13;3.63;;;18.50;67.80;;;;;;4884887;29;20040;-92
2023/07/05 01:20:39;;;;;;;9.60;3.30;;;18.50;67.50;;;;;;4888358;29;20059;-92
2023/07/05 01:23:26;;;;;;;10.40;3.60;;;18.40;67.30;;;;;;4888429;29;20051;-92
2023/07/05 01:26:08;;;;;;;9.82;3.55;;;18.50;67.40;;;;;;4903721;29;20052;-92
2023/07/05 01:28:43;;;;;;;8.57;3.78;;;18.50;67.30;;;;;;4888053;29;20048;-92
2023/07/05 01:31:59;;;;;;;9.70;3.70;;;18.50;67.20;;;;;;4888238;29;20040;-92
2023/07/05 01:34:29;;;;;;;10.97;3.43;;;18.50;67.10;;;;;;4873912;29;20076;-91
2023/07/05 01:36:57;;;;;;;10.52;3.70;;;18.50;66.90;;;;;;4887753;29;20041;-92
2023/07/05 01:39:25;;;;;;;10.73;3.85;;;18.50;67.00;;;;;;4887651;29;20040;-92
2023/07/05 01:41:52;;;;;;;9.30;3.97;;;18.50;67.10;;;;;;4902865;29;20139;-92
2023/07/05 01:44:20;;;;;;;9.68;3.85;;;18.40;67.40;;;;;;4887722;29;20399;-91
2023/07/05 01:47:03;;;;;;;8.63;3.67;;;18.40;67.40;;;;;;4903064;29;20044;-92
2023/07/05 01:50:03;;;;;;;8.23;3.28;;;18.30;67.60;;;;;;4902079;29;20451;-92
2023/07/05 01:52:54;;;;;;;11.00;3.80;;;18.30;67.70;;;;;;4902901;29;20052;-92
2023/07/05 01:55:31;;;;;;;8.93;3.58;;;18.30;67.70;;;;;;4903143;29;20103;-92
2023/07/05 01:58:07;;;;;;;7.82;3.53;;;18.20;67.80;;;;;;4902911;29;20051;-92
2023/07/05 02:00:38;;;;;;;8.17;3.33;;;18.20;68.00;;;;;;4919093;29;20099;-93
2023/07/05 02:03:09;;;;;;;8.82;3.80;;;18.20;67.80;;;;;;4902687;29;20092;-91
2023/07/05 02:05:37;;;;;;;9.90;4.03;;;18.30;67.80;;;;;;4902682;29;20059;-92
2023/07/05 02:08:05;;;;;;;9.65;3.83;;;18.30;67.60;;;;;;4902711;29;20056;-92
2023/07/05 02:10:32;;;;;;;7.95;3.78;;;18.30;67.90;;;;;;4902553;29;20063;-92
2023/07/05 02:13:02;;;;;;;8.37;3.70;;;18.20;68.10;;;;;;4902688;29;20528;-92
2023/07/05 02:15:29;;;;;;;10.98;4.30;;;18.20;68.10;;;;;;4902321;29;20147;-92
2023/07/05 02:17:56;;;;;;;8.60;3.53;;;18.20;68.30;;;;;;4918416;29;20059;-91
2023/07/05 02:20:24;;;;;;;8.73;3.80;;;18.20;68.20;;;;;;4902367;29;20060;-91
2023/07/05 02:22:51;;;;;;;10.63;3.85;;;18.30;68.30;;;;;;4902639;29;20056;-91
2023/07/05 02:25:20;;;;;;;13.97;4.30;;;18.30;68.60;;;;;;4902153;29;20112;-92
2023/07/05 02:27:48;;;;;;;9.95;3.92;;;18.30;68.90;;;;;;4902115;29;20040;-91
2023/07/05 02:30:16;;;;;;;8.93;4.00;;;18.30;68.60;;;;;;4902257;29;20549;-91
2023/07/05 02:32:43;;;;;;;10.40;3.95;;;18.30;68.20;;;;;;4887217;29;20058;-91
2023/07/05 02:35:13;;;;;;;8.80;4.10;;;18.40;68.20;;;;;;4902116;29;20135;-91
2023/07/05 02:37:40;;;;;;;9.80;3.43;;;18.40;68.30;;;;;;4902255;29;20044;-91
2023/07/05 02:40:08;;;;;;;10.63;3.88;;;18.40;68.20;;;;;;4886397;29;20063;-91
2023/07/05 02:42:36;;;;;;;9.05;3.85;;;18.50;68.10;;;;;;4901964;29;20048;-91
2023/07/05 02:45:03;;;;;;;12.77;3.95;;;18.50;68.20;;;;;;4902114;29;20051;-91
2023/07/05 02:47:30;;;;;;;7.70;3.90;;;18.50;68.20;;;;;;4886576;29;20147;-91
2023/07/05 02:49:58;;;;;;;12.73;4.00;;;18.50;68.20;;;;;;4886721;29;20059;-91
2023/07/05 02:52:26;;;;;;;8.85;3.67;;;18.50;68.20;;;;;;4902091;29;20139;-91
2023/07/05 02:54:53;;;;;;;14.32;3.90;;;18.50;68.40;;;;;;4902079;29;20052;-91
2023/07/05 02:57:20;;;;;;;9.32;3.72;;;18.50;68.60;;;;;;4886789;29;20044;-91
2023/07/05 02:59:47;;;;;;;8.20;3.80;;;18.50;68.40;;;;;;4901625;29;20066;-91
2023/07/05 03:02:14;;;;;;;9.90;3.43;;;18.50;68.00;;;;;;4901475;29;20523;-91
2023/07/05 03:04:47;;;;;;;10.70;3.97;;;18.50;68.30;;;;;;4901841;29;20048;-91
2023/07/05 03:07:14;;;;;;;9.02;3.72;;;18.50;68.40;;;;;;4886487;29;20113;-90
2023/07/05 03:09:48;;;;;;;8.60;3.60;;;18.50;68.50;;;;;;4901412;29;20055;-92
2023/07/05 03:12:16;;;;;;;9.35;3.85;;;18.50;68.40;;;;;;4886477;29;20143;-91
2023/07/05 03:14:43;;;;;;;8.43;3.53;;;18.40;68.70;;;;;;4902024;29;20048;-92
2023/07/05 03:17:10;;;;;;;11.90;3.80;;;18.50;68.50;;;;;;4901625;29;20052;-93
2023/07/05 03:19:41;;;;;;;10.23;4.03;;;18.50;68.80;;;;;;4886338;29;20052;-92
2023/07/05 03:22:08;;;;;;;8.70;4.30;;;18.50;68.90;;;;;;4886140;29;20104;-93
2023/07/05 03:24:38;;;;;;;9.40;4.07;;;18.40;68.70;;;;;;4886856;29;20063;-92
2023/07/05 03:27:05;;;;;;;10.83;3.80;;;18.50;68.90;;;;;;4901843;29;20507;-93
2023/07/05 03:29:39;;;;;;;11.18;3.97;;;18.50;69.00;;;;;;4886055;29;20040;-92
2023/07/05 03:32:07;;;;;;;12.15;4.00;;;18.50;68.70;;;;;;4901896;29;20048;-92
2023/07/05 03:34:36;;;;;;;9.18;3.95;;;18.60;68.80;;;;;;4886424;29;20041;-92
2023/07/05 03:37:04;;;;;;;8.10;3.42;;;18.60;68.90;;;;;;4886193;29;20082;-92
2023/07/05 03:39:33;;;;;;;10.00;3.83;;;18.50;68.80;;;;;;4884518;29;20388;-86
2023/07/05 03:42:03;;;;;;;10.82;3.95;;;18.50;68.90;;;;;;4896698;29;20446;-86
2023/07/05 03:44:31;;;;;;;11.00;3.85;;;18.50;69.00;;;;;;4883447;29;20131;-87
2023/07/05 03:46:59;;;;;;;10.00;4.22;;;18.50;69.10;;;;;;4882075;29;20044;-86
2023/07/05 03:49:27;;;;;;;9.95;3.95;;;18.50;69.10;;;;;;4898868;29;20052;-86
2023/07/05 03:51:54;;;;;;;9.47;4.10;;;18.50;69.00;;;;;;4888389;29;20402;-86
2023/07/05 03:54:24;;;;;;;10.93;4.43;;;18.50;69.30;;;;;;4915618;29;20059;-86
2023/07/05 03:56:57;;;;;;;10.57;4.18;;;18.50;69.30;;;;;;4882831;29;20070;-87
2023/07/05 03:59:27;;;;;;;10.18;4.18;;;18.50;69.10;;;;;;4897490;29;20056;-86
2023/07/05 04:01:55;;;;;;;9.77;3.92;;;18.50;69.20;;;;;;4898416;29;20048;-87
2023/07/05 04:04:23;;;;;;;10.77;4.43;;;18.60;69.30;;;;;;4898437;29;20134;-86
2023/07/05 04:06:53;;;;;;;14.13;4.07;;;18.60;69.50;;;;;;4898572;29;20131;-86
2023/07/05 04:09:24;;;;;;;13.00;4.05;;;18.60;69.40;;;;;;4898374;29;20041;-86
2023/07/05 04:11:54;;;;;;;10.57;4.88;;;18.60;69.60;;;;;;4896887;29;20044;-86
2023/07/05 04:14:24;;;;;;;11.30;4.10;;;18.60;69.70;;;;;;4886104;29;20075;-86
2023/07/05 04:16:51;;;;;;;9.63;3.97;;;18.60;69.70;;;;;;4887094;29;20056;-86
2023/07/05 04:19:18;;;;;;;8.52;4.20;;;18.60;69.20;;;;;;4886320;29;20051;-86
2023/07/05 04:21:45;;;;;;;10.02;4.40;;;18.70;69.40;;;;;;4902257;29;20048;-86
2023/07/05 04:24:12;;;;;;;8.65;3.92;;;18.90;69.20;;;;;;4901617;29;20414;-86
2023/07/05 04:26:39;;;;;;;12.90;5.10;;;19.00;69.10;;;;;;4901445;29;20075;-85
2023/07/05 04:29:07;;;;;;;9.60;4.20;;;19.10;68.80;;;;;;4908460;29;20422;-86
2023/07/05 04:31:37;;;;;;;11.55;4.70;;;19.10;68.70;;;;;;4902045;29;20048;-86
2023/07/05 04:34:04;;;;;;;9.73;4.63;;;19.30;68.40;;;;;;4891667;29;20127;-86
2023/07/05 04:36:31;;;;;;;12.27;5.20;;;19.40;68.00;;;;;;4901688;29;20556;-86
2023/07/05 04:39:00;;;;;;;10.73;5.18;;;19.50;67.80;;;;;;4885104;29;20134;-86
2023/07/05 04:41:27;;;;;;;10.27;4.63;;;19.70;67.30;;;;;;4901455;29;20091;-86
2023/07/05 04:43:54;;;;;;;10.43;4.75;;;19.80;66.90;;;;;;4889767;29;20528;-87
2023/07/05 04:46:22;;;;;;;10.45;4.65;;;19.90;67.30;;;;;;4901412;29;20040;-86
2023/07/05 04:48:50;;;;;;;10.05;4.30;;;20.00;66.60;;;;;;4895517;29;20444;-86
2023/07/05 04:51:17;;;;;;;9.50;4.53;;;20.10;66.70;;;;;;4901169;29;20040;-86
2023/07/05 04:53:44;;;;;;;11.33;4.53;;;20.10;66.20;;;;;;4895389;29;20487;-86
2023/07/05 04:56:14;;;;;;;8.93;4.60;;;20.30;66.00;;;;;;4901480;29;20055;-87
2023/07/05 04:58:41;;;;;;;10.98;5.22;;;20.40;65.80;;;;;;4894395;29;20055;-87
2023/07/05 05:01:09;;;;;;;11.77;5.22;;;20.60;65.50;;;;;;4901223;29;20048;-86
2023/07/05 05:03:40;;;;;;;10.93;4.57;;;20.60;64.90;;;;;;4883978;29;20048;-86
2023/07/05 05:06:07;;;;;;;10.57;4.80;;;20.80;65.20;;;;;;4900974;29;20036;-86
2023/07/05 05:08:34;;;;;;;9.82;4.65;;;20.90;65.10;;;;;;4885432;29;20403;-86
2023/07/05 05:11:03;;;;;;;10.98;4.47;;;21.10;64.50;;;;;;4884865;29;20132;-86
2023/07/05 05:13:32;;;;;;;10.85;4.55;;;21.10;64.60;;;;;;4921467;29;20398;-86
2023/07/05 05:16:00;;;;;;;10.75;4.93;;;21.10;64.00;;;;;;4900784;29;20138;-85
2023/07/05 05:18:33;;;;;;;11.60;4.53;;;21.10;63.80;;;;;;4900452;29;20052;-86
2023/07/05 05:21:00;;;;;;;10.88;4.35;;;21.10;64.40;;;;;;4884134;29;20477;-86
2023/07/05 05:23:29;;;;;;;11.63;4.50;;;21.20;64.70;;;;;;4892466;29;20048;-86
2023/07/05 05:25:56;;;;;;;18.15;4.60;;;21.40;64.50;;;;;;4899725;29;20042;-87
2023/07/05 05:28:23;;;;;;;11.05;4.55;;;21.60;63.90;;;;;;4885568;29;20056;-86
2023/07/05 05:30:50;;;;;;;13.50;5.43;;;21.70;63.90;;;;;;4900869;29;20058;-86
2023/07/05 05:33:18;;;;;;;12.98;4.95;;;21.90;63.50;;;;;;4891134;29;20040;-86
2023/07/05 05:35:49;;;;;;;13.35;5.22;;;21.90;63.20;;;;;;4885043;29;20076;-86
2023/07/05 05:38:18;;;;;;;9.98;4.65;;;22.00;62.90;;;;;;4885249;29;20044;-86
2023/07/05 05:40:48;;;;;;;12.20;4.78;;;22.10;63.00;;;;;;4889832;29;20099;-86
2023/07/05 05:43:19;;;;;;;9.70;4.53;;;22.20;62.90;;;;;;4900516;29;20056;-87
2023/07/05 05:45:46;;;;;;;11.98;5.03;;;22.40;62.80;;;;;;4900730;29;20116;-86
2023/07/05 05:48:13;;;;;;;10.23;4.70;;;22.50;62.20;;;;;;4900448;29;20048;-86
2023/07/05 05:50:40;;;;;;;16.08;5.18;;;22.60;62.30;;;;;;4900140;29;20040;-86
2023/07/05 05:53:10;;;;;;;10.20;4.88;;;22.80;61.50;;;;;;4900689;29;20040;-86
2023/07/05 05:55:38;;;;;;;12.03;4.73;;;23.00;61.40;;;;;;4899923;29;20048;-86
2023/07/05 05:58:06;;;;;;;12.32;5.00;;;23.10;60.40;;;;;;4900548;29;20104;-86
2023/07/05 06:00:34;;;;;;;12.23;4.90;;;23.20;60.80;;;;;;4899132;29;20075;-86
2023/07/05 06:03:01;;;;;;;12.32;4.95;;;23.30;60.70;;;;;;4889698;29;20059;-87
2023/07/05 06:05:29;;;;;;;9.52;4.57;;;23.30;59.70;;;;;;4894861;29;20052;-86
2023/07/05 06:07:56;;;;;;;11.27;5.37;;;23.40;60.40;;;;;;4895538;29;20521;-86
2023/07/05 06:10:23;;;;;;;11.85;5.07;;;23.50;60.40;;;;;;4880810;29;20059;-86
2023/07/05 06:12:50;;;;;;;11.88;4.93;;;23.60;60.20;;;;;;4896123;29;20047;-86
2023/07/05 06:15:17;;;;;;;11.77;4.55;;;23.70;58.70;;;;;;4895600;29;20045;-87
2023/07/05 06:17:44;;;;;;;18.08;5.70;;;23.80;59.20;;;;;;4879323;29;20055;-86
2023/07/05 06:20:14;;;;;;;266.23;34.13;;;24.10;59.60;;;;;;4895744;29;20052;-87
2023/07/05 06:22:42;;;;;;;152.65;19.50;;;24.10;57.80;;;;;;4903522;29;20053;-86
2023/07/05 06:25:12;;;;;;;14.98;5.30;;;24.20;57.20;;;;;;4880636;29;20132;-86
2023/07/05 06:27:39;;;;;;;13.73;5.32;;;24.20;57.30;;;;;;4896447;29;20044;-86
2023/07/05 06:30:07;;;;;;;15.93;4.72;;;24.30;57.40;;;;;;4896774;29;20063;-85
2023/07/05 06:32:35;;;;;;;17.40;5.30;;;24.40;57.30;;;;;;4881142;29;20045;-86
2023/07/05 06:35:03;;;;;;;13.63;5.10;;;24.40;56.40;;;;;;4881048;29;20065;-86
2023/07/05 06:37:30;;;;;;;11.93;5.25;;;24.50;57.30;;;;;;4881221;29;20670;-85
2023/07/05 06:39:57;;;;;;;17.25;5.05;;;24.70;56.90;;;;;;4886743;29;20403;-85
2023/07/05 06:42:24;;;;;;;12.60;5.13;;;24.80;56.10;;;;;;4881181;29;20135;-85
2023/07/05 06:44:59;;;;;;;11.77;4.93;;;24.90;56.60;;;;;;4879536;29;20072;-85
2023/07/05 06:47:26;;;;;;;17.67;5.07;;;24.90;56.00;;;;;;4880192;29;20051;-85
2023/07/05 06:49:53;;;;;;;10.00;4.63;;;25.00;56.30;;;;;;4880639;29;20048;-86
2023/07/05 06:52:20;;;;;;;16.90;5.25;;;25.10;55.60;;;;;;4895115;29;20047;-85
2023/07/05 06:54:47;;;;;;;11.13;4.90;;;25.10;55.30;;;;;;4887203;29;20509;-86
2023/07/05 06:57:14;;;;;;;9.97;4.73;;;25.20;55.70;;;;;;4879915;29;20072;-85
2023/07/05 06:59:44;;;;;;;12.45;4.60;;;25.20;54.50;;;;;;4896168;29;20053;-87
2023/07/05 07:02:11;;;;;;;11.88;5.10;;;25.30;55.60;;;;;;4893548;29;20535;-87
2023/07/05 07:04:39;;;;;;;25.85;5.53;;;25.60;54.60;;;;;;4896152;29;20558;-86
2023/07/05 07:07:06;;;;;;;10.85;5.22;;;25.70;55.40;;;;;;4885778;29;20072;-86
2023/07/05 07:09:34;;;;;;;15.70;5.17;;;25.90;54.20;;;;;;4895823;29;20809;-86
2023/07/05 07:12:01;;;;;;;11.27;5.30;;;26.10;55.10;;;;;;4896172;29;20105;-87
2023/07/05 07:14:28;;;;;;;12.02;5.15;;;26.30;54.90;;;;;;4879965;29;20492;-87
2023/07/05 07:16:55;;;;;;;13.20;5.40;;;26.50;53.50;;;;;;4880508;29;20059;-87
2023/07/05 07:19:23;;;;;;;10.40;4.70;;;26.60;53.30;;;;;;4896359;29;20048;-88
2023/07/05 07:21:50;;;;;;;11.57;4.93;;;26.70;54.40;;;;;;4880736;29;20048;-88
2023/07/05 07:24:17;;;;;;;12.02;4.95;;;26.90;53.50;;;;;;4880789;29;20502;-88
2023/07/05 07:26:45;;;;;;;12.23;5.15;;;26.80;52.10;;;;;;4879616;29;20455;-88
2023/07/05 07:29:14;;;;;;;10.65;4.95;;;26.90;51.70;;;;;;4896239;29;20068;-88
2023/07/05 07:31:41;;;;;;;11.35;5.32;;;27.00;51.80;;;;;;4880639;29;20491;-88
2023/07/05 07:34:09;;;;;;;9.03;4.63;;;27.10;53.30;;;;;;4896058;29;20079;-89
2023/07/05 07:36:36;;;;;;;9.98;4.90;;;27.10;51.60;;;;;;4896902;29;20511;-88
2023/07/05 07:39:04;;;;;;;14.70;4.82;;;27.20;51.90;;;;;;4886983;29;20504;-89
2023/07/05 07:41:39;;;;;;;11.80;5.22;;;27.20;53.30;;;;;;4896947;29;20053;-89
2023/07/05 07:44:13;;;;;;;9.25;5.20;;;27.30;51.80;;;;;;4882081;29;20128;-88
2023/07/05 07:46:45;;;;;;;9.23;4.60;;;27.50;52.50;;;;;;4879378;29;20045;-89
2023/07/05 07:49:12;;;;;;;12.02;5.05;;;27.60;51.40;;;;;;4898785;29;20048;-88
2023/07/05 07:51:44;;;;;;;15.50;5.28;;;27.60;51.00;;;;;;4899653;29;20123;-89
2023/07/05 07:54:14;;;;;;;10.50;4.63;;;27.80;52.50;;;;;;4899042;29;20490;-89
2023/07/05 07:56:43;;;;;;;13.18;4.93;;;27.90;50.40;;;;;;4892094;29;20100;-89
2023/07/05 07:59:10;;;;;;;10.43;4.90;;;28.10;50.30;;;;;;4882977;29;20408;-89
2023/07/05 08:01:39;;;;;;;12.77;4.88;;;28.00;50.30;;;;;;4897589;29;20049;-89
2023/07/05 08:04:09;;;;;;;10.82;4.85;;;27.90;50.50;;;;;;4893828;29;20048;-89
2023/07/05 08:06:41;;;;;;;12.85;5.30;;;28.00;49.80;;;;;;4871033;29;20571;-89
2023/07/05 08:09:21;;;;;;;10.68;5.13;;;28.10;48.80;;;;;;4864943;29;20057;-89
2023/07/05 08:11:48;;;;;;;10.00;4.90;;;28.00;49.90;;;;;;4871220;29;20056;-89
2023/07/05 08:14:17;;;;;;;10.68;4.82;;;28.20;51.10;;;;;;4880226;29;20075;-90
2023/07/05 08:16:46;;;;;;;12.13;5.00;;;28.30;50.40;;;;;;4882038;29;20105;-90
2023/07/05 08:19:14;;;;;;;8.48;4.75;;;28.20;47.90;;;;;;4865532;29;20102;-90
2023/07/05 08:21:44;;;;;;;8.73;4.47;;;28.10;49.40;;;;;;4879993;29;20065;-92
2023/07/05 08:24:35;;;;;;;11.33;4.70;;;28.20;48.00;;;;;;4878136;29;20530;-92
2023/07/05 08:27:02;;;;;;;9.30;4.10;;;28.30;47.50;;;;;;4882312;29;20456;-91
2023/07/05 08:29:29;;;;;;;10.27;4.60;;;28.50;48.40;;;;;;4874271;29;20135;-91
2023/07/05 08:31:57;;;;;;;12.23;5.13;;;28.70;49.70;;;;;;4873565;29;20416;-91
2023/07/05 08:34:24;;;;;;;9.70;4.22;;;28.90;48.40;;;;;;4859247;29;20048;-91
2023/07/05 08:36:51;;;;;;;9.87;4.50;;;28.90;46.30;;;;;;4878937;29;20050;-91
2023/07/05 08:39:19;;;;;;;11.63;4.38;;;28.90;45.70;;;;;;4864157;29;20053;-92
2023/07/05 08:42:01;;;;;;;13.18;4.55;;;28.80;45.50;;;;;;4871886;29;20483;-91
2023/07/05 08:44:30;;;;;;;10.32;5.03;;;28.80;45.20;;;;;;4867002;29;20429;-91
2023/07/05 08:47:07;;;;;;;11.90;4.68;;;28.70;46.90;;;;;;4897313;29;20041;-91
2023/07/05 08:50:13;;;;;;;11.10;4.43;;;29.00;47.80;;;;;;4880827;29;20407;-91
2023/07/05 08:53:13;;;;;;;11.75;4.75;;;29.10;45.70;;;;;;4878480;29;20045;-90
2023/07/05 08:55:53;;;;;;;9.43;4.20;;;29.20;46.00;;;;;;4882198;29;20101;-91
2023/07/05 08:58:24;;;;;;;8.32;4.20;;;29.30;44.50;;;;;;4865817;29;20496;-91
2023/07/05 09:01:04;;;;;;;16.65;4.60;;;29.40;45.90;;;;;;4880489;29;20048;-91
2023/07/05 09:03:31;;;;;;;12.63;4.43;;;28.90;43.80;;;;;;4895846;29;20511;-90
2023/07/05 09:06:11;;;;;;;9.25;4.28;;;28.30;45.00;;;;;;4899887;29;20151;-91
2023/07/05 09:08:59;;;;;;;9.48;4.50;;;28.10;46.10;;;;;;4899953;29;20065;-90
2023/07/05 09:11:45;;;;;;;8.75;4.18;;;28.10;46.40;;;;;;4892592;29;20045;-91
2023/07/05 09:14:36;;;;;;;9.13;4.38;;;28.40;46.60;;;;;;4900203;29;20105;-90
2023/07/05 09:17:16;;;;;;;9.27;4.23;;;28.90;47.70;;;;;;4900157;29;20127;-91
2023/07/05 09:19:58;;;;;;;9.02;4.40;;;29.00;44.60;;;;;;4900167;29;20087;-91
2023/07/05 09:22:32;;;;;;;9.52;5.30;;;28.90;44.70;;;;;;4895668;29;20091;-91
2023/07/05 09:25:00;;;;;;;9.80;4.40;;;28.80;46.50;;;;;;4884494;29;20507;-91
2023/07/05 09:27:49;;;;;;;14.05;4.30;;;28.90;45.60;;;;;;4881387;29;20049;-91
2023/07/05 09:30:24;;;;;;;11.63;4.97;;;29.20;46.90;;;;;;4878748;29;20056;-91
2023/07/05 09:33:06;;;;;;;10.80;4.60;;;29.60;45.80;;;;;;4899789;29;20055;-91
2023/07/05 09:35:37;;;;;;;12.68;4.75;;;29.60;44.40;;;;;;4884146;29;20079;-91
2023/07/05 09:38:11;;;;;;;10.75;4.47;;;29.50;45.30;;;;;;4899515;29;20059;-90
2023/07/05 09:40:44;;;;;;;13.50;4.93;;;29.10;45.60;;;;;;4899640;29;20495;-91
2023/07/05 09:43:29;;;;;;;12.53;5.03;;;28.80;46.90;;;;;;4899674;29;20515;-92
2023/07/05 09:46:01;;;;;;;9.77;4.85;;;28.80;45.70;;;;;;4899802;29;20059;-91
2023/07/05 09:48:34;;;;;;;12.40;5.43;;;28.80;45.50;;;;;;4881110;29;20060;-91
2023/07/05 09:51:03;;;;;;;8.88;4.50;;;28.90;45.80;;;;;;4884193;29;20060;-91
2023/07/05 09:53:41;;;;;;;15.90;5.30;;;29.10;43.40;;;;;;4881007;29;20049;-91
2023/07/05 09:56:27;;;;;;;18.30;6.80;;;29.00;42.70;;;;;;4883639;29;20048;-91
2023/07/05 09:59:21;;;;;;;14.40;6.35;;;28.70;42.40;;;;;;4899388;29;20044;-91
2023/07/05 10:01:53;;;;;;;11.15;4.47;;;28.50;43.50;;;;;;4882224;29;20495;-91
2023/07/05 10:04:29;;;;;;;12.40;4.90;;;28.20;43.10;;;;;;4917102;29;20058;-91
2023/07/05 10:06:56;;;;;;;10.10;3.83;;;28.10;44.20;;;;;;4902093;29;20143;-92
2023/07/05 10:09:25;;;;;;;11.63;4.40;;;28.60;43.90;;;;;;4902176;29;20297;-91
2023/07/05 10:11:56;;;;;;;10.68;4.65;;;28.90;42.60;;;;;;4886479;29;20052;-91
2023/07/05 10:14:33;;;;;;;12.48;5.28;;;29.10;44.80;;;;;;4902318;29;20090;-91
2023/07/05 10:17:11;;;;;;;10.40;4.38;;;29.10;42.20;;;;;;4902076;29;20083;-92
2023/07/05 10:19:49;;;;;;;10.02;4.50;;;29.40;43.00;;;;;;4902441;29;20056;-92
2023/07/05 10:22:31;;;;;;;10.40;4.63;;;29.50;42.50;;;;;;4887261;29;20055;-91
2023/07/05 10:25:14;;;;;;;10.63;4.60;;;29.30;41.40;;;;;;4902040;29;20068;-91
2023/07/05 10:27:44;;;;;;;11.80;4.72;;;29.10;42.30;;;;;;4885348;29;20054;-91
2023/07/05 10:30:14;;;;;;;10.23;3.80;;;28.90;42.40;;;;;;4901905;29;20490;-91
2023/07/05 10:32:51;;;;;;;8.55;4.07;;;28.90;42.60;;;;;;4902282;29;20048;-91
2023/07/05 10:35:25;;;;;;;11.03;4.03;;;28.90;41.80;;;;;;4900557;29;20103;-91
2023/07/05 10:37:53;;;;;;;8.13;3.55;;;29.10;44.00;;;;;;4902051;29;20048;-91
2023/07/05 10:40:22;;;;;;;13.52;5.32;;;29.10;43.40;;;;;;4887950;29;20048;-91
2023/07/05 10:42:53;;;;;;;12.82;4.57;;;29.10;43.80;;;;;;4885468;29;20078;-91
2023/07/05 10:45:22;;;;;;;10.20;4.20;;;29.10;42.90;;;;;;4901653;29;20474;-92
2023/07/05 10:47:52;;;;;;;11.23;4.10;;;29.20;41.80;;;;;;4886221;29;20051;-91
2023/07/05 10:50:26;;;;;;;8.82;4.05;;;29.30;43.10;;;;;;4886376;29;20131;-92
2023/07/05 10:52:59;;;;;;;9.18;4.35;;;29.70;43.80;;;;;;4901956;29;20067;-92
2023/07/05 10:55:42;;;;;;;7.95;3.75;;;30.10;41.80;;;;;;4901866;29;20048;-92
2023/07/05 10:58:21;;;;;;;9.02;3.72;;;30.00;40.20;;;;;;4886193;29;20498;-91
2023/07/05 11:01:01;;;;;;;10.83;3.67;;;29.70;42.10;;;;;;4901579;29;20115;-91
2023/07/05 11:04:00;;;;;;;11.65;4.45;;;29.50;41.90;;;;;;4885018;29;20088;-91
2023/07/05 11:06:28;;;;;;;9.40;4.75;;;29.10;40.80;;;;;;4875622;29;20418;-91
2023/07/05 11:08:57;;;;;;;14.93;5.70;;;29.10;40.60;;;;;;4886144;29;20096;-91
2023/07/05 11:11:28;;;;;;;9.40;4.15;;;29.00;40.50;;;;;;4885941;29;20072;-92
2023/07/05 11:14:15;;;;;;;9.70;4.37;;;29.30;42.00;;;;;;4902297;29;20510;-90
2023/07/05 11:16:45;;;;;;;8.25;4.53;;;29.60;41.80;;;;;;4904372;29;20468;-93
2023/07/05 11:19:20;;;;;;;10.40;4.22;;;29.60;42.40;;;;;;4886563;29;20067;-96
2023/07/05 11:21:49;;;;;;;8.85;4.22;;;29.60;43.20;;;;;;4887786;29;20103;-95
2023/07/05 11:24:25;;;;;;;7.28;4.13;;;29.60;42.90;;;;;;4890441;29;20052;-95
2023/07/05 11:26:52;;;;;;;9.77;4.43;;;29.60;43.50;;;;;;4890316;29;20048;-95
2023/07/05 11:29:25;;;;;;;9.25;3.97;;;29.60;42.70;;;;;;4905449;29;20141;-96
2023/07/05 11:31:52;;;;;;;9.85;4.53;;;30.00;42.70;;;;;;4905568;29;20040;-95
2023/07/05 11:34:23;;;;;;;13.35;4.35;;;30.10;44.70;;;;;;4890232;29;20135;-95
2023/07/05 11:36:56;;;;;;;8.05;4.13;;;30.00;41.50;;;;;;4890219;29;20135;-95
2023/07/05 11:39:35;;;;;;;11.43;4.50;;;29.90;41.30;;;;;;4905531;29;20065;-96
2023/07/05 11:42:17;;;;;;;8.50;3.85;;;29.70;45.30;;;;;;4890233;29;20083;-95
2023/07/05 11:44:49;;;;;;;9.80;4.38;;;29.70;45.40;;;;;;4905589;29;20060;-95
2023/07/05 11:47:22;;;;;;;8.55;3.95;;;29.60;46.00;;;;;;4889873;29;20048;-95
2023/07/05 11:50:13;;;;;;;8.68;3.97;;;29.60;46.00;;;;;;4890234;29;20087;-96
2023/07/05 11:52:50;;;;;;;9.83;4.40;;;29.60;45.30;;;;;;4890139;29;20566;-95
2023/07/05 11:55:23;;;;;;;9.80;4.35;;;29.50;45.40;;;;;;4889892;29;20047;-95
2023/07/05 11:58:02;;;;;;;9.43;4.70;;;29.40;45.20;;;;;;4889826;29;20063;-91
2023/07/05 12:00:34;;;;;;;9.63;4.05;;;29.20;44.90;;;;;;4903613;29;20526;-91
2023/07/05 12:03:17;;;;;;;7.32;3.95;;;29.10;47.60;;;;;;4904709;29;20051;-91
2023/07/05 12:05:46;;;;;;;10.50;4.60;;;29.00;48.70;;;;;;4904414;29;20111;-90
2023/07/05 12:08:26;;;;;;;8.52;3.92;;;28.90;46.70;;;;;;4904354;29;20090;-91
2023/07/05 12:10:58;;;;;;;8.00;4.20;;;28.80;48.50;;;;;;4902474;29;21129;-91
2023/07/05 12:13:31;;;;;;;10.65;4.20;;;28.60;46.00;;;;;;4904258;29;20054;-92
2023/07/05 12:15:59;;;;;;;10.13;4.13;;;28.60;45.70;;;;;;4903231;29;20048;-92
2023/07/05 12:18:28;;;;;;;10.23;4.43;;;28.60;47.90;;;;;;4888631;29;20060;-91
2023/07/05 12:20:58;;;;;;;9.15;4.65;;;28.90;46.40;;;;;;4885252;29;20135;-92
2023/07/05 12:23:29;;;;;;;9.75;4.30;;;29.10;44.10;;;;;;4888932;29;20129;-92
2023/07/05 12:25:58;;;;;;;8.18;4.10;;;29.20;42.60;;;;;;4883614;29;20041;-92
2023/07/05 12:28:31;;;;;;;8.65;4.13;;;29.20;43.40;;;;;;4894144;29;20056;-92
2023/07/05 12:31:07;;;;;;;8.17;4.00;;;29.10;43.90;;;;;;4888515;29;20090;-92
2023/07/05 12:33:36;;;;;;;10.77;4.80;;;29.10;43.70;;;;;;4883912;29;20080;-92
2023/07/05 12:36:11;;;;;;;10.82;4.55;;;29.00;44.20;;;;;;4896073;29;20560;-92
2023/07/05 12:38:41;;;;;;;10.93;4.70;;;29.00;45.00;;;;;;4881967;29;20048;-92
2023/07/05 12:41:23;;;;;;;11.73;5.25;;;29.00;46.30;;;;;;4904707;29;20056;-93
2023/07/05 12:44:01;;;;;;;11.00;4.63;;;29.00;49.60;;;;;;4885811;29;20052;-91
2023/07/05 12:46:31;;;;;;;14.82;4.57;;;28.70;49.50;;;;;;4870034;29;20049;-91
2023/07/05 12:49:12;;;;;;;14.20;4.80;;;28.60;51.70;;;;;;4880212;29;20051;-91
2023/07/05 12:51:51;;;;;;;9.68;4.72;;;28.60;52.70;;;;;;4904118;29;20148;-92
2023/07/05 12:54:18;;;;;;;8.15;4.10;;;28.70;51.00;;;;;;4904112;29;20059;-92
2023/07/05 12:56:47;;;;;;;10.40;4.40;;;28.80;51.30;;;;;;4888518;29;20092;-92
2023/07/05 12:59:24;;;;;;;12.77;4.40;;;28.80;49.80;;;;;;4904568;29;20096;-92
2023/07/05 13:02:06;;;;;;;9.77;4.05;;;28.70;50.20;;;;;;4904218;29;20123;-92
2023/07/05 13:04:52;;;;;;;14.05;4.63;;;28.80;52.50;;;;;;4888602;29;20047;-92